Grainfield, KS

12:56 AM CDT on September 02, 2014 (GMT -0500)
South Gove | Change Station
CLOSE
Current Station
Personal Weather Station
Location: Gove, KS
Elevation: 2620 ft
Nearby Weather Stations

Elev 2620 ft 38.81 °N, 100.46 °W | Updated 33 seconds ago

Clear
Clear
63.7 °F
Feels Like 63.7 °F
N
4.2
Wind Variable Wind from SSW

Today
High -- | Low -- °F
--% Chance of Precip.
Yesterday
High -- | Low -- °F
Precip. -- in
7:11 AM 8:10 PM
Waxing Crescent, 48% visible
Pressure 30.00 in
Visibility 10.0 miles
Clouds Clear
Dew Point 59 °F
Humidity 84%
Rainfall 0.00 in
Snow Depth Not available.
UV 0 out of 12
Pollen 9.30 out of 12
Air Quality Not available.
Flu Activity Not available.
METAR KCBK 020535Z AUTO 20004KT 10SM CLR 16/14 A3000 RMK AO2

More Conditions Fewer Conditions

Pressure 30.00 in
Visibility 10.0 miles
Clouds Clear
Dew Point 59 °F
Humidity 84%
Rainfall 0.00 in
Snow Depth Not available.
UV 0 out of 12
Pollen 9.30 out of 12
Air Quality Not available.
Flu Activity Not available.
METAR KCBK 020535Z AUTO 20004KT 10SM CLR 16/14 A3000 RMK AO2

More Conditions Fewer Conditions

10-Day Weather Forecast

Almanac

Astronomy

Sep. 02, 2014 Rise Set
Actual Time 7:11 AM CDT 8:10 PM CDT
Civil Twilight 6:44 AM CDT 8:38 PM CDT
Nautical Twilight 6:11 AM CDT 9:10 PM CDT
Astronomical Twilight 5:37 AM CDT 9:44 PM CDT
Moon 2:54 PM CDT 12:18 AM CDT
Length of Visible Light 13h 53m
Length of Day
12h 59m
Tomorrow will be 2m 28s shorter.
Waxing Crescent, 48% of the Moon is Illuminated
Today
Waxing Crescent
Sep 2
First Quarter
Sep 8
Full
Sep 15
Last Quarter
Sep 24
New

Today's Extremes

State Highs State Lows

Community

WunderPhotos

Upload Photos

1,749,579 photos uploaded!

WunderBlogs® & News

Nearby

Snow Depth

Station Depth Elevation
No new snow has been reported.

Earthquake Activity

City Distance Mag. Time & Date
No recent earthquake activity has been reported nearby.
Minimum magnitude displayed is 2.5.

Coastal Water Temperatures

Place Temperature
No Stations Reporting

Nearby Weather Stations